createdAt,value
2023-05-16T00:00:39.123Z,14.88
2023-05-16T00:03:06.491Z,14.74
2023-05-16T00:05:33.628Z,14.70
2023-05-16T00:08:00.436Z,14.74
2023-05-16T00:10:27.590Z,14.70
2023-05-16T00:12:54.650Z,14.70
2023-05-16T00:15:21.556Z,14.67
2023-05-16T00:17:49.902Z,14.62
2023-05-16T00:20:18.928Z,14.63
2023-05-16T00:22:46.204Z,14.63
2023-05-16T00:25:13.075Z,14.58
2023-05-16T00:27:39.895Z,14.58
2023-05-16T00:30:07.734Z,14.57
2023-05-16T00:32:34.661Z,14.50
2023-05-16T00:35:01.598Z,14.50
2023-05-16T00:37:28.415Z,14.53
2023-05-16T00:39:55.813Z,14.50
2023-05-16T00:42:22.628Z,14.53
2023-05-16T00:44:49.447Z,14.48
2023-05-16T00:47:16.304Z,14.55
2023-05-16T00:49:43.612Z,14.56
2023-05-16T00:52:10.545Z,14.57
2023-05-16T00:54:38.291Z,14.60
2023-05-16T00:57:06.767Z,14.60
2023-05-16T00:59:34.094Z,14.58
2023-05-16T01:02:01.134Z,14.62
2023-05-16T01:04:28.665Z,14.60
2023-05-16T01:06:57.174Z,14.52
2023-05-16T01:09:24.097Z,14.49
2023-05-16T01:12:16.360Z,14.50
2023-05-16T01:14:59.773Z,14.38
2023-05-16T01:17:43.692Z,14.40
2023-05-16T01:20:48.237Z,14.38
2023-05-16T01:24:04.060Z,14.35
2023-05-16T01:26:32.564Z,14.31
2023-05-16T01:28:59.925Z,14.26
2023-05-16T01:31:26.936Z,14.01
2023-05-16T01:33:53.816Z,13.80
2023-05-16T01:36:25.954Z,14.01
2023-05-16T01:39:21.918Z,14.11
2023-05-16T01:42:03.846Z,14.18
2023-05-16T01:44:45.787Z,14.21
2023-05-16T01:47:15.118Z,14.25
2023-05-16T01:50:05.630Z,14.23
2023-05-16T01:52:40.897Z,14.22
2023-05-16T01:55:16.088Z,14.25
2023-05-16T01:57:45.232Z,14.18
2023-05-16T02:00:13.171Z,14.17
2023-05-16T02:02:40.065Z,14.07
2023-05-16T02:05:07.510Z,14.07
2023-05-16T02:07:34.829Z,14.05
2023-05-16T02:10:01.708Z,14.07
2023-05-16T02:12:28.512Z,14.13
2023-05-16T02:14:55.460Z,14.13
2023-05-16T02:17:22.657Z,14.13
2023-05-16T02:19:49.573Z,14.12
2023-05-16T02:22:16.410Z,14.12
2023-05-16T02:24:43.333Z,14.07
2023-05-16T02:27:10.234Z,14.02
2023-05-16T02:29:37.013Z,14.00
2023-05-16T02:32:04.710Z,13.95
2023-05-16T02:34:31.541Z,13.94
2023-05-16T02:36:58.376Z,13.93
2023-05-16T02:39:25.452Z,13.93
2023-05-16T02:41:52.269Z,13.89
2023-05-16T02:44:19.100Z,13.89
2023-05-16T02:46:46.513Z,13.91
2023-05-16T02:49:13.574Z,13.92
2023-05-16T02:51:40.450Z,13.81
2023-05-16T02:54:09.842Z,13.83
2023-05-16T02:56:37.263Z,13.90
2023-05-16T02:59:05.098Z,13.90
2023-05-16T03:01:31.996Z,13.92
2023-05-16T03:03:59.029Z,13.91
2023-05-16T03:06:26.115Z,13.95
2023-05-16T03:08:52.986Z,14.00
2023-05-16T03:11:22.290Z,14.01
2023-05-16T03:13:49.356Z,14.01
2023-05-16T03:16:16.559Z,14.00
2023-05-16T03:18:43.862Z,13.99
2023-05-16T03:21:10.874Z,13.83
2023-05-16T03:23:37.717Z,13.88
2023-05-16T03:26:04.521Z,13.87
2023-05-16T03:28:31.398Z,13.91
2023-05-16T03:30:58.732Z,13.92
2023-05-16T03:33:25.558Z,13.90
2023-05-16T03:35:52.711Z,13.89
2023-05-16T03:38:19.537Z,13.89
2023-05-16T03:40:46.467Z,13.93
2023-05-16T03:43:13.291Z,13.94
2023-05-16T03:45:40.434Z,13.88
2023-05-16T03:48:09.001Z,13.92
2023-05-16T03:50:39.540Z,14.02
2023-05-16T03:53:07.886Z,13.88
2023-05-16T03:55:35.075Z,13.76
2023-05-16T03:58:02.062Z,13.83
2023-05-16T04:00:29.237Z,13.83
2023-05-16T04:02:56.266Z,13.82
2023-05-16T04:05:23.289Z,13.81
2023-05-16T04:07:50.133Z,13.85
2023-05-16T04:10:16.981Z,13.77
2023-05-16T04:12:44.524Z,13.81
2023-05-16T04:15:11.822Z,13.89
2023-05-16T04:17:38.691Z,13.93
2023-05-16T04:20:07.027Z,13.96
2023-05-16T04:22:33.939Z,13.83
2023-05-16T04:25:00.882Z,13.93
2023-05-16T04:27:27.740Z,13.97
2023-05-16T04:29:54.577Z,13.97
2023-05-16T04:32:21.528Z,13.98
2023-05-16T04:34:50.070Z,13.83
2023-05-16T04:37:17.225Z,13.88
2023-05-16T04:39:44.024Z,13.93
2023-05-16T04:42:10.940Z,13.92
2023-05-16T04:44:37.774Z,13.94
2023-05-16T04:47:04.957Z,13.96
2023-05-16T04:49:31.782Z,14.00
2023-05-16T04:51:59.153Z,13.93
2023-05-16T04:54:26.525Z,13.68
2023-05-16T04:56:53.637Z,13.71
2023-05-16T04:59:21.173Z,13.82
2023-05-16T05:01:48.039Z,13.92
2023-05-16T05:04:14.926Z,13.91
2023-05-16T05:06:41.782Z,14.04
2023-05-16T05:09:08.609Z,14.15
2023-05-16T05:11:35.625Z,14.25
2023-05-16T05:14:02.553Z,14.07
2023-05-16T05:16:29.422Z,14.17
2023-05-16T05:18:56.348Z,14.14
2023-05-16T05:21:25.346Z,14.37
2023-05-16T05:23:52.153Z,14.48
2023-05-16T05:26:19.160Z,14.56
2023-05-16T05:28:53.922Z,14.38
2023-05-16T05:31:28.549Z,14.41
2023-05-16T05:33:56.907Z,14.57
2023-05-16T05:36:23.837Z,14.57
2023-05-16T05:38:50.804Z,14.43
2023-05-16T05:41:17.653Z,14.71
2023-05-16T05:43:44.508Z,14.92
2023-05-16T05:46:11.597Z,14.99
2023-05-16T05:48:38.555Z,15.05
2023-05-16T05:51:05.514Z,15.28
2023-05-16T05:53:32.327Z,15.20
2023-05-16T05:55:59.185Z,15.12
2023-05-16T05:58:26.116Z,15.17
2023-05-16T06:00:52.907Z,15.08
2023-05-16T06:03:21.263Z,14.95
2023-05-16T06:05:48.403Z,15.02
2023-05-16T06:08:15.370Z,15.21
2023-05-16T06:10:42.221Z,15.33
2023-05-16T06:13:09.288Z,15.29
2023-05-16T06:15:36.145Z,15.36
2023-05-16T06:18:03.035Z,15.52
2023-05-16T06:20:29.970Z,15.60
2023-05-16T06:22:56.775Z,15.56
2023-05-16T06:25:23.641Z,15.64
2023-05-16T06:27:50.795Z,15.63
2023-05-16T06:30:17.666Z,15.67
2023-05-16T06:32:44.644Z,15.64
2023-05-16T06:35:11.629Z,15.73
2023-05-16T06:37:39.205Z,15.69
2023-05-16T06:40:08.022Z,15.54
2023-05-16T06:42:34.904Z,15.61
2023-05-16T06:45:01.826Z,15.40
2023-05-16T06:47:28.731Z,15.45
2023-05-16T06:49:55.760Z,15.39
2023-05-16T06:52:22.779Z,15.27
2023-05-16T06:54:49.698Z,15.32
2023-05-16T06:57:16.663Z,15.39
2023-05-16T06:59:43.615Z,15.43
2023-05-16T07:02:10.625Z,15.51
2023-05-16T07:04:38.128Z,15.48
2023-05-16T07:07:07.730Z,15.48
2023-05-16T07:09:35.120Z,15.51
2023-05-16T07:12:02.098Z,15.56
2023-05-16T07:14:29.011Z,15.25
2023-05-16T07:16:56.106Z,15.38
2023-05-16T07:19:23.240Z,15.38
2023-05-16T07:21:50.099Z,15.52
2023-05-16T07:24:16.952Z,15.68
2023-05-16T07:26:44.019Z,15.69
2023-05-16T07:29:11.090Z,15.59
2023-05-16T07:31:38.087Z,15.70
2023-05-16T07:34:05.076Z,15.51
2023-05-16T07:36:32.080Z,15.60
2023-05-16T07:38:58.962Z,15.67
2023-05-16T07:41:26.316Z,15.66
2023-05-16T07:43:53.456Z,15.81
2023-05-16T07:46:20.437Z,15.68
2023-05-16T07:48:47.624Z,16.03
2023-05-16T07:51:14.488Z,16.12
2023-05-16T07:53:42.018Z,15.91
2023-05-16T07:56:09.348Z,16.10
2023-05-16T07:58:36.312Z,16.29
2023-05-16T08:01:03.721Z,16.25
2023-05-16T08:03:31.000Z,16.33
2023-05-16T08:05:58.140Z,16.27
2023-05-16T08:08:25.124Z,16.37
2023-05-16T08:10:51.954Z,16.21
2023-05-16T08:13:18.857Z,16.48
2023-05-16T08:15:46.800Z,16.56
2023-05-16T08:18:16.158Z,16.58
2023-05-16T08:20:43.574Z,16.82
2023-05-16T08:23:10.530Z,17.03
2023-05-16T08:25:37.594Z,17.04
2023-05-16T08:28:04.621Z,17.05
2023-05-16T08:30:31.538Z,16.75
2023-05-16T08:32:58.512Z,16.87
2023-05-16T08:35:25.879Z,16.62
2023-05-16T08:37:52.991Z,16.43
2023-05-16T08:40:20.450Z,16.24
2023-05-16T08:42:47.317Z,16.28
2023-05-16T08:45:14.611Z,16.32
2023-05-16T08:47:44.492Z,16.34
2023-05-16T08:50:18.656Z,16.45
2023-05-16T08:52:47.717Z,16.63
2023-05-16T08:55:16.970Z,16.76
2023-05-16T08:57:45.596Z,16.80
2023-05-16T09:00:13.296Z,16.86
2023-05-16T09:02:44.904Z,16.82
2023-05-16T09:05:17.620Z,16.67
2023-05-16T09:07:45.736Z,16.69
2023-05-16T09:10:13.694Z,16.78
2023-05-16T09:12:42.137Z,16.84
2023-05-16T09:15:10.961Z,16.67
2023-05-16T09:17:45.197Z,16.64
2023-05-16T09:20:18.205Z,16.70
2023-05-16T09:22:59.435Z,16.66
2023-05-16T09:25:31.833Z,16.41
2023-05-16T09:28:02.071Z,16.57
2023-05-16T09:30:34.866Z,16.56
2023-05-16T09:33:02.521Z,16.46
2023-05-16T09:37:59.590Z,16.40
2023-05-16T09:40:26.480Z,16.31
2023-05-16T09:43:05.878Z,16.41
2023-05-16T09:45:34.263Z,16.69
2023-05-16T09:48:07.248Z,16.87
2023-05-16T09:50:36.724Z,16.99
2023-05-16T09:53:04.881Z,17.10
2023-05-16T09:55:32.661Z,17.12
2023-05-16T09:57:59.602Z,17.21
2023-05-16T10:00:32.100Z,17.26
2023-05-16T10:03:04.071Z,17.25
2023-05-16T10:05:32.793Z,17.34
2023-05-16T10:08:02.753Z,17.34
2023-05-16T10:10:30.426Z,17.27
2023-05-16T10:13:01.419Z,17.44
2023-05-16T10:15:29.525Z,17.53
2023-05-16T10:18:02.026Z,17.41
2023-05-16T10:20:29.329Z,17.50
2023-05-16T10:22:56.951Z,17.63
2023-05-16T10:25:32.889Z,17.75
2023-05-16T10:28:00.230Z,17.88
2023-05-16T10:30:27.449Z,17.79
2023-05-16T10:32:56.697Z,17.92
2023-05-16T10:35:23.840Z,17.96
2023-05-16T10:37:52.120Z,18.51
2023-05-16T10:40:19.847Z,18.96
2023-05-16T10:43:02.900Z,19.35
2023-05-16T10:45:30.324Z,18.70
2023-05-16T10:48:00.915Z,19.07
2023-05-16T10:50:43.527Z,18.67
2023-05-16T10:53:28.501Z,18.47
2023-05-16T10:56:01.497Z,18.60
2023-05-16T10:58:31.437Z,18.60
2023-05-16T11:01:27.634Z,18.56
2023-05-16T11:04:00.913Z,18.85
2023-05-16T11:06:29.785Z,17.88
2023-05-16T11:09:14.133Z,18.48
2023-05-16T11:11:49.365Z,18.57
2023-05-16T11:14:24.730Z,18.88
2023-05-16T11:17:14.318Z,19.45
2023-05-16T11:19:59.847Z,19.28
2023-05-16T11:22:29.930Z,19.13
2023-05-16T11:25:09.138Z,18.77
2023-05-16T11:27:43.846Z,19.54
2023-05-16T11:30:10.720Z,19.41
2023-05-16T11:32:40.576Z,20.01
2023-05-16T11:35:12.782Z,19.90
2023-05-16T11:37:42.121Z,20.29
2023-05-16T11:40:12.192Z,19.81
2023-05-16T11:42:43.174Z,19.76
2023-05-16T11:45:22.932Z,19.63
2023-05-16T11:47:50.292Z,19.88
2023-05-16T11:50:26.278Z,20.01
2023-05-16T11:52:56.189Z,20.05
2023-05-16T11:58:02.080Z,20.06
2023-05-16T12:00:29.411Z,20.14
2023-05-16T12:03:05.006Z,19.75
2023-05-16T12:05:33.978Z,19.99
2023-05-16T12:08:05.778Z,19.67
2023-05-16T12:10:36.139Z,19.86
2023-05-16T12:13:03.654Z,19.68
2023-05-16T12:15:31.081Z,19.89
2023-05-16T12:17:58.670Z,19.88
2023-05-16T12:20:27.591Z,19.82
2023-05-16T12:22:58.642Z,19.90
2023-05-16T12:25:30.235Z,19.84
2023-05-16T12:28:01.136Z,19.81
2023-05-16T12:30:31.227Z,19.94
2023-05-16T12:33:07.967Z,20.08
2023-05-16T12:35:38.790Z,19.91
2023-05-16T12:38:10.546Z,19.78
2023-05-16T12:40:42.217Z,19.30
2023-05-16T12:43:22.781Z,19.29
2023-05-16T12:45:55.933Z,18.67
2023-05-16T12:48:32.331Z,18.22
2023-05-16T12:51:17.047Z,17.36
2023-05-16T12:53:57.614Z,17.17
2023-05-16T12:56:28.750Z,16.20
2023-05-16T12:58:57.459Z,16.39
2023-05-16T13:01:24.512Z,16.43
2023-05-16T13:03:51.521Z,16.24
2023-05-16T13:06:18.564Z,16.38
2023-05-16T13:08:46.156Z,16.48
2023-05-16T13:11:13.010Z,16.42
2023-05-16T13:13:39.963Z,16.49
2023-05-16T13:16:07.183Z,16.60
2023-05-16T13:18:34.608Z,16.72
2023-05-16T13:21:04.462Z,16.73
2023-05-16T13:23:31.559Z,16.82
2023-05-16T13:25:59.348Z,16.86
2023-05-16T13:28:26.270Z,16.99
2023-05-16T13:30:53.211Z,17.05
2023-05-16T13:33:20.192Z,17.15
2023-05-16T13:35:47.519Z,16.98
2023-05-16T13:38:15.640Z,17.06
2023-05-16T13:40:42.863Z,17.03
2023-05-16T13:43:09.757Z,17.04
2023-05-16T13:45:37.496Z,17.08
2023-05-16T13:48:04.887Z,17.07
2023-05-16T13:50:34.148Z,17.10
2023-05-16T13:53:01.128Z,17.08
2023-05-16T13:55:28.473Z,16.79
2023-05-16T13:57:55.736Z,16.70
2023-05-16T14:02:52.947Z,16.75
2023-05-16T14:05:19.870Z,16.86
2023-05-16T14:07:47.265Z,16.77
2023-05-16T14:10:14.196Z,16.79
2023-05-16T14:12:41.241Z,16.70
2023-05-16T14:15:08.835Z,16.65
2023-05-16T14:17:35.752Z,16.64
2023-05-16T14:20:02.914Z,16.68
2023-05-16T14:22:29.824Z,16.77
2023-05-16T14:24:56.741Z,16.70
2023-05-16T14:27:23.606Z,16.73
2023-05-16T14:29:50.538Z,16.79
2023-05-16T14:32:17.452Z,16.71
2023-05-16T14:34:44.537Z,16.79
2023-05-16T14:37:11.536Z,16.60
2023-05-16T14:39:38.664Z,16.80
2023-05-16T14:42:08.425Z,16.83
2023-05-16T14:44:36.108Z,16.80
2023-05-16T14:47:04.198Z,16.92
2023-05-16T14:49:31.151Z,16.92
2023-05-16T14:51:58.429Z,16.88
2023-05-16T14:54:25.464Z,16.88
2023-05-16T14:56:52.406Z,16.90
2023-05-16T14:59:19.353Z,16.80
2023-05-16T15:01:46.285Z,16.76
2023-05-16T15:04:13.328Z,16.74
2023-05-16T15:06:40.646Z,16.65
2023-05-16T15:09:07.690Z,16.67
2023-05-16T15:11:34.650Z,16.63
2023-05-16T15:14:01.725Z,16.67
2023-05-16T15:16:31.243Z,16.74
2023-05-16T15:18:58.567Z,16.75
2023-05-16T15:21:25.777Z,16.76
2023-05-16T15:23:52.991Z,16.76
2023-05-16T15:26:19.957Z,16.81
2023-05-16T15:28:46.823Z,16.78
2023-05-16T15:31:14.029Z,16.88
2023-05-16T15:33:41.273Z,16.91
2023-05-16T15:36:08.685Z,16.95
2023-05-16T15:38:36.376Z,17.03
2023-05-16T15:41:18.758Z,17.01
2023-05-16T15:43:53.536Z,16.98
2023-05-16T15:46:20.841Z,17.10
2023-05-16T15:48:48.867Z,17.16
2023-05-16T15:51:16.153Z,17.14
2023-05-16T15:53:43.071Z,17.19
2023-05-16T15:56:10.278Z,17.21
2023-05-16T15:58:37.190Z,17.21
2023-05-16T16:01:04.175Z,17.23
2023-05-16T16:03:31.345Z,17.21
2023-05-16T16:05:58.400Z,17.25
2023-05-16T16:08:27.550Z,17.27
2023-05-16T16:10:54.551Z,17.15
2023-05-16T16:13:21.650Z,17.18
2023-05-16T16:15:48.628Z,17.19
2023-05-16T16:18:16.461Z,17.13
2023-05-16T16:20:43.423Z,17.17
2023-05-16T16:23:10.569Z,17.19
2023-05-16T16:25:37.496Z,17.19
2023-05-16T16:28:04.683Z,17.23
2023-05-16T16:30:31.689Z,17.23
2023-05-16T16:32:58.632Z,17.17
2023-05-16T16:35:26.712Z,17.22
2023-05-16T16:38:05.670Z,17.10
2023-05-16T16:40:33.539Z,17.09
2023-05-16T16:43:01.382Z,17.07
2023-05-16T16:45:28.862Z,16.99
2023-05-16T16:47:56.692Z,16.92
2023-05-16T16:50:24.006Z,16.91
2023-05-16T16:52:51.199Z,16.69
2023-05-16T16:55:18.097Z,16.54
2023-05-16T16:57:45.075Z,16.54
2023-05-16T17:00:13.138Z,16.28
2023-05-16T17:02:40.073Z,16.50
2023-05-16T17:05:08.664Z,16.63
2023-05-16T17:07:35.635Z,16.58
2023-05-16T17:10:07.791Z,16.35
2023-05-16T17:12:35.258Z,16.34
2023-05-16T17:15:02.294Z,16.36
2023-05-16T17:17:29.435Z,16.33
2023-05-16T17:19:56.486Z,16.33
2023-05-16T17:22:23.375Z,16.30
2023-05-16T17:24:50.296Z,16.20
2023-05-16T17:27:18.200Z,16.24
2023-05-16T17:29:45.052Z,16.31
2023-05-16T17:32:11.926Z,16.29
2023-05-16T17:34:38.816Z,16.38
2023-05-16T17:37:06.681Z,16.35
2023-05-16T17:39:34.166Z,16.24
2023-05-16T17:42:01.733Z,16.23
2023-05-16T17:44:28.804Z,16.27
2023-05-16T17:46:55.824Z,16.14
2023-05-16T17:49:22.734Z,16.15
2023-05-16T17:51:52.795Z,16.12
2023-05-16T17:54:21.217Z,16.06
2023-05-16T17:56:50.292Z,15.98
2023-05-16T17:59:17.409Z,15.97
2023-05-16T18:01:44.762Z,15.93
2023-05-16T18:04:11.745Z,15.75
2023-05-16T18:06:39.242Z,15.87
2023-05-16T18:09:09.568Z,15.89
2023-05-16T18:11:39.525Z,15.86
2023-05-16T18:14:12.717Z,15.90
2023-05-16T18:16:39.783Z,15.96
2023-05-16T18:19:08.605Z,15.85
2023-05-16T18:21:37.062Z,15.84
2023-05-16T18:24:05.245Z,15.79
2023-05-16T18:26:32.175Z,15.65
2023-05-16T18:28:59.353Z,15.67
2023-05-16T18:31:28.649Z,15.51
2023-05-16T18:33:55.624Z,15.43
2023-05-16T18:36:22.759Z,15.34
2023-05-16T18:38:49.822Z,15.12
2023-05-16T18:41:17.381Z,15.25
2023-05-16T18:43:44.277Z,15.08
2023-05-16T18:46:11.194Z,15.04
2023-05-16T18:48:38.221Z,15.00
2023-05-16T18:51:08.249Z,15.05
2023-05-16T18:53:37.129Z,14.90
2023-05-16T18:56:07.373Z,14.83
2023-05-16T18:58:34.507Z,14.81
2023-05-16T19:01:01.700Z,14.67
2023-05-16T19:03:28.778Z,14.69
2023-05-16T19:05:55.882Z,14.50
2023-05-16T19:08:31.269Z,14.59
2023-05-16T19:11:03.789Z,14.49
2023-05-16T19:13:34.518Z,14.53
2023-05-16T19:16:01.580Z,14.39
2023-05-16T19:18:28.716Z,14.57
2023-05-16T19:20:56.024Z,14.42
2023-05-16T19:23:22.909Z,14.52
2023-05-16T19:25:52.583Z,14.41
2023-05-16T19:28:19.468Z,14.38
2023-05-16T19:30:46.335Z,14.33
2023-05-16T19:33:13.461Z,14.26
2023-05-16T19:35:40.404Z,14.38
2023-05-16T19:38:07.245Z,14.30
2023-05-16T19:40:40.191Z,14.18
2023-05-16T19:43:07.218Z,14.38
2023-05-16T19:45:37.525Z,14.26
2023-05-16T19:48:04.975Z,14.14
2023-05-16T19:50:31.859Z,14.24
2023-05-16T19:52:58.765Z,14.22
2023-05-16T19:55:27.235Z,14.24
2023-05-16T19:57:54.825Z,14.17
2023-05-16T20:00:21.674Z,14.12
2023-05-16T20:02:48.828Z,14.27
2023-05-16T20:05:19.795Z,14.34
2023-05-16T20:07:46.859Z,14.23
2023-05-16T20:10:14.083Z,14.28
2023-05-16T20:12:40.973Z,14.21
2023-05-16T20:15:10.864Z,14.23
2023-05-16T20:17:38.524Z,14.21
2023-05-16T20:20:08.196Z,14.20
2023-05-16T20:22:41.694Z,14.01
2023-05-16T20:25:10.194Z,14.07
2023-05-16T20:27:37.703Z,14.04
2023-05-16T20:30:06.782Z,13.95
2023-05-16T20:32:34.359Z,13.88
2023-05-16T20:35:04.614Z,13.88
2023-05-16T20:37:31.504Z,13.95
2023-05-16T20:39:58.340Z,13.93
2023-05-16T20:42:25.275Z,13.88
2023-05-16T20:44:52.106Z,13.86
2023-05-16T20:47:19.000Z,13.82
2023-05-16T20:49:45.885Z,13.81
2023-05-16T20:52:12.723Z,13.88
2023-05-16T20:54:41.086Z,13.86
2023-05-16T20:57:07.920Z,13.82
2023-05-16T20:59:34.786Z,13.73
2023-05-16T21:02:01.661Z,13.78
2023-05-16T21:04:28.641Z,13.74
2023-05-16T21:06:55.525Z,13.78
2023-05-16T21:09:22.401Z,13.78
2023-05-16T21:11:49.967Z,13.70
2023-05-16T21:14:16.917Z,13.71
2023-05-16T21:16:43.818Z,13.76
2023-05-16T21:19:10.717Z,13.64
2023-05-16T21:21:37.551Z,13.50
2023-05-16T21:24:05.417Z,13.59
2023-05-16T21:26:32.248Z,13.56
2023-05-16T21:28:59.140Z,13.55
2023-05-16T21:31:26.231Z,13.49
2023-05-16T21:33:53.226Z,13.52
2023-05-16T21:36:20.932Z,13.44
2023-05-16T21:38:48.427Z,13.46
2023-05-16T21:41:15.704Z,13.51
2023-05-16T21:43:42.539Z,13.45
2023-05-16T21:46:10.585Z,13.46
2023-05-16T21:48:37.528Z,13.35
2023-05-16T21:51:04.530Z,13.43
2023-05-16T21:53:31.502Z,13.45
2023-05-16T21:55:59.575Z,13.37
2023-05-16T21:58:26.637Z,13.38
2023-05-16T22:00:53.844Z,13.30
2023-05-16T22:03:21.416Z,13.25
2023-05-16T22:05:48.483Z,13.24
2023-05-16T22:08:15.521Z,13.20
2023-05-16T22:10:42.714Z,13.23
2023-05-16T22:13:09.880Z,13.31
2023-05-16T22:15:36.822Z,13.37
2023-05-16T22:18:03.800Z,13.06
2023-05-16T22:20:30.769Z,13.22
2023-05-16T22:22:57.691Z,13.28
2023-05-16T22:25:24.651Z,13.23
2023-05-16T22:27:51.509Z,13.22
2023-05-16T22:30:18.504Z,13.20
2023-05-16T22:32:46.702Z,13.19
2023-05-16T22:35:14.291Z,13.21
2023-05-16T22:37:41.307Z,13.13
2023-05-16T22:40:09.155Z,13.13
2023-05-16T22:42:36.061Z,13.05
2023-05-16T22:45:03.836Z,13.04
2023-05-16T22:47:31.012Z,13.11
2023-05-16T22:49:57.951Z,13.08
2023-05-16T22:52:24.958Z,13.01
2023-05-16T22:54:51.790Z,13.07
2023-05-16T22:57:18.748Z,13.03
2023-05-16T22:59:45.594Z,12.97
2023-05-16T23:03:15.471Z,13.02
2023-05-16T23:05:42.566Z,12.96
2023-05-16T23:08:09.418Z,12.90
2023-05-16T23:10:36.876Z,12.83
2023-05-16T23:13:03.824Z,12.79
2023-05-16T23:15:30.962Z,12.80
2023-05-16T23:17:58.051Z,12.73
2023-05-16T23:20:25.114Z,12.79
2023-05-16T23:22:52.028Z,12.84
2023-05-16T23:25:18.924Z,12.75
2023-05-16T23:27:45.851Z,12.75
2023-05-16T23:30:13.103Z,12.73
2023-05-16T23:32:40.024Z,12.69
2023-05-16T23:35:07.554Z,12.67
2023-05-16T23:37:34.410Z,12.65
2023-05-16T23:40:01.288Z,12.65
2023-05-16T23:42:28.139Z,12.66
2023-05-16T23:44:55.045Z,12.67
2023-05-16T23:47:22.501Z,12.67
2023-05-16T23:49:49.449Z,12.74
2023-05-16T23:52:16.311Z,12.62
2023-05-16T23:54:45.318Z,12.60
2023-05-16T23:57:12.178Z,12.67
2023-05-16T23:59:39.789Z,12.65
